Time;durP1;ratioP1;P1;durP2;ratioP2;P2;SDS_P1;SDS_P2;PMS_P1;PMS_P2;Temp;Humidity;BMP_temperature;BMP_pressure;BME280_temperature;BME280_humidity;BME280_pressure;Samples;Min_cycle;Max_cycle;Signal;HPM_P1;HPM_P2
2022/08/08 00:00:22;;;;;;;0.67;0.40;;;;;;;19.96;35.13;99363.38;5090991;28;42052;-76
2022/08/08 00:02:59;;;;;;;0.63;0.50;;;;;;;19.84;35.29;99348.38;5091928;28;39995;-76
2022/08/08 00:05:34;;;;;;;0.50;0.50;;;;;;;19.88;35.16;99361.41;5090414;28;41783;-76
2022/08/08 00:08:10;;;;;;;0.40;0.40;;;;;;;19.84;35.47;99359.13;5091308;28;42558;-76
2022/08/08 00:10:49;;;;;;;0.40;0.40;;;;;;;19.79;35.50;99361.38;5089310;28;43155;-76
2022/08/08 00:13:22;;;;;;;0.50;0.50;;;;;;;19.71;35.27;99365.66;5090077;28;40707;-76
2022/08/08 00:16:09;;;;;;;0.63;0.60;;;;;;;19.65;35.78;99365.38;5074137;28;40389;-76
2022/08/08 00:18:48;;;;;;;0.50;0.50;;;;;;;19.47;36.05;99341.00;5090411;28;41775;-75
2022/08/08 00:21:19;;;;;;;0.50;0.50;;;;;;;19.51;35.80;99363.94;5090397;28;42516;-76
2022/08/08 00:23:51;;;;;;;1.13;0.70;;;;;;;19.46;35.95;99366.16;5090682;28;39322;-75
2022/08/08 00:26:27;;;;;;;0.53;0.40;;;;;;;19.33;36.03;99352.16;5073339;28;44025;-76
2022/08/08 00:29:05;;;;;;;0.50;0.50;;;;;;;19.24;36.12;99350.31;5090271;28;41882;-77
2022/08/08 00:31:36;;;;;;;0.50;0.50;;;;;;;19.27;36.39;99371.50;5072598;28;41049;-76
2022/08/08 00:37:15;;;;;;;0.53;0.53;;;;;;;19.11;36.77;99365.81;5072716;28;40781;-75
2022/08/08 00:39:53;;;;;;;0.50;0.50;;;;;;;18.77;36.60;99330.41;5087141;28;42515;-77
2022/08/08 00:42:51;;;;;;;0.90;0.53;;;;;;;18.94;36.92;99370.84;5088943;28;42961;-76
2022/08/08 00:45:57;;;;;;;0.57;0.50;;;;;;;18.86;37.31;99362.63;5070137;28;40327;-76
2022/08/08 00:49:00;;;;;;;0.40;0.40;;;;;;;18.77;37.60;99368.81;5088335;28;41798;-76
2022/08/08 00:52:03;;;;;;;0.60;0.57;;;;;;;18.69;38.18;99362.41;5052128;28;43322;-77
2022/08/08 00:55:09;;;;;;;0.47;0.47;;;;;;;18.65;37.60;99367.22;5031764;28;40553;-76
2022/08/08 00:58:14;;;;;;;0.47;0.47;;;;;;;18.60;37.32;99361.38;5089087;28;40688;-76
2022/08/08 01:00:50;;;;;;;0.70;0.50;;;;;;;18.55;37.32;99364.44;5073156;28;42233;-77
2022/08/08 01:04:01;;;;;;;0.60;0.60;;;;;;;18.50;37.50;99371.19;5089781;28;42803;-75
2022/08/08 01:07:16;;;;;;;1.47;0.60;;;;;;;18.36;37.65;99352.75;5030650;28;42020;-76
2022/08/08 01:10:33;;;;;;;0.50;0.50;;;;;;;18.36;37.96;99363.50;5072812;28;41299;-75
2022/08/08 01:13:39;;;;;;;0.97;0.70;;;;;;;18.32;38.46;99368.25;5063832;28;41571;-76
2022/08/08 01:16:37;;;;;;;0.60;0.60;;;;;;;18.29;38.49;99364.03;5065358;28;43414;-75
2022/08/08 01:19:40;;;;;;;1.00;0.70;;;;;;;18.27;38.91;99366.00;5072885;28;42144;-76
2022/08/08 01:22:49;;;;;;;1.50;0.50;;;;;;;18.25;38.20;99361.75;5089449;28;40671;-76
2022/08/08 01:26:01;;;;;;;0.77;0.77;;;;;;;18.21;37.78;99371.88;5072563;28;40827;-76
2022/08/08 01:29:05;;;;;;;0.83;0.53;;;;;;;18.18;38.32;99366.75;5072443;28;41975;-76
2022/08/08 01:32:02;;;;;;;0.47;0.47;;;;;;;18.13;39.03;99360.97;5077516;28;43186;-76
2022/08/08 01:35:08;;;;;;;0.70;0.70;;;;;;;18.13;39.20;99369.00;5072804;28;41362;-76
2022/08/08 01:38:04;;;;;;;0.50;0.50;;;;;;;18.13;39.03;99371.69;5072269;28;41476;-76
2022/08/08 01:40:45;;;;;;;0.80;0.53;;;;;;;18.12;38.73;99367.31;5072724;28;41759;-76
2022/08/08 01:43:32;;;;;;;1.27;0.57;;;;;;;18.10;38.54;99366.59;5089359;28;42314;-75
2022/08/08 01:46:13;;;;;;;0.60;0.60;;;;;;;18.14;38.49;99370.72;5072593;28;38806;-76
2022/08/08 01:48:54;;;;;;;1.43;0.57;;;;;;;18.11;38.63;99364.75;5086269;28;41914;-75
2022/08/08 01:51:50;;;;;;;0.40;0.40;;;;;;;18.08;38.77;99365.00;5071919;28;42176;-76
2022/08/08 01:54:28;;;;;;;0.50;0.50;;;;;;;18.04;38.82;99364.44;5080341;28;43109;-76
2022/08/08 01:57:10;;;;;;;0.50;0.40;;;;;;;17.87;39.17;99335.53;5088844;28;41087;-76
2022/08/08 01:59:48;;;;;;;1.53;0.50;;;;;;;17.97;39.17;99357.88;5086312;28;41732;-76
2022/08/08 02:02:35;;;;;;;0.60;0.60;;;;;;;17.95;39.60;99362.53;5071940;28;44286;-76
2022/08/08 02:05:17;;;;;;;0.50;0.50;;;;;;;17.92;39.64;99349.41;5089488;28;42577;-76
2022/08/08 02:08:01;;;;;;;0.40;0.40;;;;;;;17.72;40.08;99339.50;5088387;28;40008;-76
2022/08/08 02:10:42;;;;;;;0.57;0.50;;;;;;;17.78;39.73;99357.75;5089747;28;42856;-76
2022/08/08 02:13:16;;;;;;;0.70;0.50;;;;;;;17.60;39.62;99344.03;5089223;28;42939;-76
2022/08/08 02:15:52;;;;;;;0.57;0.50;;;;;;;17.67;39.67;99363.16;5073208;28;41119;-76
2022/08/08 02:18:33;;;;;;;0.60;0.60;;;;;;;17.59;39.68;99363.75;5089763;28;39162;-75
2022/08/08 02:24:08;;;;;;;0.47;0.40;;;;;;;17.38;39.64;99355.69;5075890;28;41521;-76
2022/08/08 02:26:46;;;;;;;0.40;0.40;;;;;;;17.36;39.56;99362.97;5090806;28;43068;-76
2022/08/08 02:29:33;;;;;;;0.50;0.50;;;;;;;17.33;40.03;99371.25;5089949;28;40011;-76
2022/08/08 02:32:17;;;;;;;0.50;0.50;;;;;;;17.30;40.24;99368.00;5075859;28;40747;-76
2022/08/08 02:35:16;;;;;;;0.67;0.50;;;;;;;17.27;40.31;99371.78;5090074;28;42844;-76
2022/08/08 02:38:14;;;;;;;0.60;0.60;;;;;;;17.23;40.41;99368.50;5075606;28;43261;-76
2022/08/08 02:40:58;;;;;;;0.60;0.60;;;;;;;17.19;40.66;99360.81;5076149;28;39947;-76
2022/08/08 02:44:24;;;;;;;0.47;0.40;;;;;;;17.18;40.54;99364.50;5089867;28;41862;-76
2022/08/08 02:47:17;;;;;;;0.60;0.60;;;;;;;17.14;40.19;99371.06;5090704;28;42734;-76
2022/08/08 02:50:16;;;;;;;0.60;0.53;;;;;;;17.11;40.66;99374.00;5075750;28;41607;-75
2022/08/08 02:53:11;;;;;;;1.37;1.23;;;;;;;17.10;40.58;99372.28;5057837;28;39868;-76
2022/08/08 02:56:22;;;;;;;1.40;0.43;;;;;;;17.09;40.46;99370.59;5074060;28;43557;-76
2022/08/08 02:59:36;;;;;;;1.23;0.40;;;;;;;17.05;40.44;99380.72;5072330;28;42498;-76
2022/08/08 03:02:39;;;;;;;0.77;0.67;;;;;;;17.04;40.61;99379.00;5049073;28;43381;-76
2022/08/08 03:05:50;;;;;;;0.60;0.60;;;;;;;17.03;40.47;99376.44;5027665;28;39712;-75
2022/08/08 03:09:08;;;;;;;0.80;0.70;;;;;;;17.02;40.79;99380.94;5053536;28;41632;-74
2022/08/08 03:12:12;;;;;;;1.07;0.83;;;;;;;16.98;40.69;99375.94;5018396;28;42592;-75
2022/08/08 03:14:52;;;;;;;0.40;0.40;;;;;;;16.98;40.86;99375.94;5090290;28;42304;-75
2022/08/08 03:17:25;;;;;;;0.40;0.40;;;;;;;16.98;40.64;99389.34;5092180;28;40773;-75
2022/08/08 03:20:04;;;;;;;0.50;0.50;;;;;;;16.95;40.81;99378.88;5092153;28;41965;-76
2022/08/08 03:22:41;;;;;;;2.40;0.80;;;;;;;16.92;40.78;99385.34;5074989;28;41766;-76
2022/08/08 03:25:11;;;;;;;0.63;0.63;;;;;;;16.81;40.91;99371.97;5089030;28;42404;-75
2022/08/08 03:27:41;;;;;;;0.60;0.60;;;;;;;16.87;40.84;99384.84;5092019;28;39875;-75
2022/08/08 03:30:13;;;;;;;0.60;0.60;;;;;;;16.86;40.88;99389.34;5088949;28;41561;-76
2022/08/08 03:35:28;;;;;;;0.60;0.60;;;;;;;16.83;41.03;99383.38;5089039;28;43251;-76
2022/08/08 03:38:00;;;;;;;1.23;0.70;;;;;;;16.81;41.41;99388.03;5074604;28;38909;-77
2022/08/08 03:40:28;;;;;;;0.50;0.50;;;;;;;16.79;41.24;99385.47;5075209;28;41379;-76
2022/08/08 03:42:57;;;;;;;0.80;0.70;;;;;;;16.76;41.37;99385.69;5073852;28;43405;-76
2022/08/08 03:45:28;;;;;;;0.70;0.50;;;;;;;16.75;41.25;99394.69;5074930;28;41568;-75
2022/08/08 03:47:57;;;;;;;0.47;0.47;;;;;;;16.76;41.20;99390.19;5074413;28;39631;-75
2022/08/08 03:50:27;;;;;;;1.27;0.50;;;;;;;16.76;41.16;99395.56;5091586;28;40500;-76
2022/08/08 03:52:56;;;;;;;0.77;0.60;;;;;;;16.74;41.29;99397.50;5074318;28;42939;-76
2022/08/08 03:55:25;;;;;;;0.70;0.50;;;;;;;16.72;41.11;99400.28;5091400;28;41458;-75
2022/08/08 03:57:56;;;;;;;0.60;0.60;;;;;;;16.53;41.27;99374.13;5091352;28;41188;-75
2022/08/08 04:00:26;;;;;;;1.17;0.50;;;;;;;16.70;41.27;99401.38;5088638;28;41714;-76
2022/08/08 04:03:05;;;;;;;0.60;0.50;;;;;;;16.63;41.37;99390.31;5092084;28;44117;-75
2022/08/08 04:05:35;;;;;;;0.60;0.60;;;;;;;16.69;41.67;99400.53;5091456;28;42946;-75
2022/08/08 04:08:08;;;;;;;0.80;0.70;;;;;;;16.60;42.09;99385.16;5091098;28;39991;-75
2022/08/08 04:10:38;;;;;;;2.27;0.80;;;;;;;16.68;42.11;99406.88;5074468;28;40973;-76
2022/08/08 04:13:08;;;;;;;0.63;0.50;;;;;;;16.69;41.99;99405.88;5091058;28;42692;-76
2022/08/08 04:15:36;;;;;;;1.07;0.90;;;;;;;16.68;41.85;99409.53;5091477;28;42324;-76
2022/08/08 04:18:04;;;;;;;0.77;0.50;;;;;;;16.70;41.90;99412.91;5091310;28;39974;-76
2022/08/08 04:20:32;;;;;;;0.80;0.60;;;;;;;16.70;41.91;99407.56;5074393;28;41059;-75
2022/08/08 04:23:00;;;;;;;0.60;0.60;;;;;;;16.71;41.91;99408.44;5073958;28;41675;-76
2022/08/08 04:25:29;;;;;;;4.43;0.70;;;;;;;16.70;41.74;99414.75;5074120;28;41387;-75
2022/08/08 04:27:58;;;;;;;0.77;0.70;;;;;;;16.70;41.81;99418.28;5074119;28;40027;-74
2022/08/08 04:30:26;;;;;;;0.63;0.60;;;;;;;16.70;41.64;99423.63;5091090;28;40964;-75
2022/08/08 04:32:55;;;;;;;0.53;0.50;;;;;;;16.71;42.02;99413.78;5090921;28;43677;-75
2022/08/08 04:35:28;;;;;;;1.20;0.93;;;;;;;16.71;42.05;99425.31;5074411;28;41076;-75
2022/08/08 04:37:55;;;;;;;0.70;0.70;;;;;;;16.64;42.40;99410.75;5073924;28;40096;-75
2022/08/08 04:40:31;;;;;;;1.20;0.77;;;;;;;16.73;42.19;99427.88;5074016;28;41786;-76
2022/08/08 04:43:01;;;;;;;0.77;0.70;;;;;;;16.76;42.15;99433.00;5090199;28;43555;-76
2022/08/08 04:45:35;;;;;;;1.03;0.60;;;;;;;16.76;42.17;99423.16;5073880;28;43388;-76
2022/08/08 04:48:04;;;;;;;0.63;0.57;;;;;;;16.88;42.21;99434.72;5073787;28;38719;-76
2022/08/08 04:50:36;;;;;;;0.80;0.80;;;;;;;16.98;42.27;99442.84;5087692;28;41874;-76
2022/08/08 04:53:05;;;;;;;1.43;0.80;;;;;;;16.92;42.18;99425.47;5073332;28;41806;-75
2022/08/08 04:55:34;;;;;;;0.73;0.70;;;;;;;17.14;41.77;99443.34;5072795;28;41251;-76
2022/08/08 04:58:03;;;;;;;1.03;0.70;;;;;;;17.22;41.88;99441.75;5091791;28;40069;-76
2022/08/08 05:00:31;;;;;;;0.80;0.80;;;;;;;17.31;42.13;99433.97;5090543;28;41780;-76
2022/08/08 05:02:59;;;;;;;0.80;0.80;;;;;;;17.39;42.07;99443.06;5090768;28;42810;-75
2022/08/08 05:05:27;;;;;;;0.70;0.70;;;;;;;17.50;41.95;99444.84;5073485;28;43266;-76
2022/08/08 05:07:55;;;;;;;0.70;0.70;;;;;;;17.50;41.75;99429.66;5073404;28;38821;-75
2022/08/08 05:10:22;;;;;;;0.80;0.70;;;;;;;17.67;41.12;99448.88;5073424;28;40118;-76
2022/08/08 05:12:50;;;;;;;1.70;0.67;;;;;;;17.73;41.39;99451.88;5073227;28;41784;-75
2022/08/08 05:15:20;;;;;;;1.07;0.60;;;;;;;17.82;41.15;99455.63;5073448;28;43045;-76
2022/08/08 05:17:47;;;;;;;2.13;1.03;;;;;;;17.89;41.70;99462.19;5090199;28;40628;-76
2022/08/08 05:20:15;;;;;;;0.73;0.60;;;;;;;17.94;41.04;99446.56;5073280;28;42835;-75
2022/08/08 05:22:44;;;;;;;1.83;0.70;;;;;;;18.11;40.94;99464.78;5090138;28;42679;-76
2022/08/08 05:25:12;;;;;;;0.60;0.60;;;;;;;18.21;41.08;99465.72;5073118;28;41591;-76
2022/08/08 05:27:41;;;;;;;0.50;0.50;;;;;;;18.29;40.81;99471.28;5073132;28;39843;-75
2022/08/08 05:30:11;;;;;;;0.83;0.70;;;;;;;18.38;40.49;99463.44;5090137;28;42670;-75
2022/08/08 05:32:46;;;;;;;0.63;0.60;;;;;;;18.48;40.40;99473.25;5090149;28;43363;-76
2022/08/08 05:35:21;;;;;;;1.00;0.53;;;;;;;18.59;40.49;99478.59;5090345;28;41262;-75
2022/08/08 05:37:54;;;;;;;0.80;0.70;;;;;;;18.72;40.06;99482.91;5073207;28;39068;-76
2022/08/08 05:40:46;;;;;;;1.33;0.67;;;;;;;18.82;40.35;99484.66;5087891;28;40102;-76
2022/08/08 05:43:20;;;;;;;1.70;0.80;;;;;;;18.94;39.99;99483.59;5073088;28;44307;-77
2022/08/08 05:45:48;;;;;;;1.10;0.60;;;;;;;19.00;39.89;99480.38;5073070;28;42935;-76
2022/08/08 05:48:18;;;;;;;1.43;0.80;;;;;;;19.16;39.80;99484.41;5090002;28;40491;-76
2022/08/08 05:50:46;;;;;;;0.60;0.60;;;;;;;19.30;39.72;99489.38;5089759;28;41801;-76
2022/08/08 05:53:15;;;;;;;0.80;0.60;;;;;;;19.51;39.23;99498.28;5072969;28;41615;-76
2022/08/08 05:55:44;;;;;;;0.70;0.70;;;;;;;19.69;39.29;99496.63;5092534;28;42615;-76
2022/08/08 05:58:14;;;;;;;0.67;0.67;;;;;;;19.81;39.18;99499.19;5076484;28;39541;-76
2022/08/08 06:00:45;;;;;;;0.97;0.80;;;;;;;19.91;39.20;99500.91;5076361;28;42236;-76
2022/08/08 06:03:16;;;;;;;2.67;0.60;;;;;;;20.03;38.75;99502.47;5076236;28;41962;-76
2022/08/08 06:05:50;;;;;;;1.80;0.90;;;;;;;20.15;38.88;99503.22;5090210;28;43240;-76
2022/08/08 06:08:25;;;;;;;1.43;0.77;;;;;;;20.31;38.66;99508.84;5093638;28;39850;-77
2022/08/08 06:10:56;;;;;;;1.83;0.60;;;;;;;20.44;38.28;99512.16;5076152;28;40778;-73
2022/08/08 06:13:27;;;;;;;0.80;0.73;;;;;;;20.57;37.85;99519.09;5076176;28;44062;-74
2022/08/08 06:15:56;;;;;;;0.70;0.70;;;;;;;20.70;37.54;99523.19;5078772;28;43225;-75
2022/08/08 06:18:40;;;;;;;0.80;0.70;;;;;;;20.84;37.59;99515.66;5089082;28;41364;-74
2022/08/08 06:21:10;;;;;;;1.57;1.33;;;;;;;21.03;37.13;99521.81;5074346;28;40781;-74
2022/08/08 06:23:38;;;;;;;1.83;0.80;;;;;;;21.28;36.56;99520.34;5089583;28;43722;-74
2022/08/08 06:26:09;;;;;;;1.17;0.70;;;;;;;21.48;36.59;99527.38;5085444;28;42025;-76
2022/08/08 06:28:44;;;;;;;1.43;0.70;;;;;;;21.66;36.09;99513.94;5075937;28;38769;-77
2022/08/08 06:31:14;;;;;;;2.90;0.60;;;;;;;22.06;35.96;99539.72;5071554;28;41803;-78
2022/08/08 06:33:51;;;;;;;1.60;0.90;;;;;;;22.31;35.31;99538.13;5055753;28;41742;-75
2022/08/08 06:36:30;;;;;;;1.07;0.90;;;;;;;22.60;34.89;99540.59;5085327;28;42202;-76
2022/08/08 06:39:01;;;;;;;1.40;1.00;;;;;;;23.06;34.47;99552.97;5089558;28;39849;-76
2022/08/08 06:41:32;;;;;;;2.10;0.80;;;;;;;23.76;33.82;99549.16;5072054;28;41398;-76
2022/08/08 06:44:03;;;;;;;0.50;0.50;;;;;;;24.63;32.46;99562.25;5070694;28;42706;-75
2022/08/08 06:46:36;;;;;;;1.33;0.70;;;;;;;25.19;31.81;99562.41;5090014;28;42217;-76
2022/08/08 06:49:04;;;;;;;1.83;0.73;;;;;;;25.30;30.85;99571.03;5126491;27;40111;-75
2022/08/08 06:51:35;;;;;;;1.87;0.90;;;;;;;25.16;30.94;99570.91;5074441;28;41793;-75
2022/08/08 06:54:03;;;;;;;2.90;1.00;;;;;;;25.14;31.25;99564.78;5074673;28;44245;-76
2022/08/08 06:56:36;;;;;;;2.13;0.73;;;;;;;25.15;31.41;99556.50;5073888;28;42864;-77
2022/08/08 06:59:07;;;;;;;1.97;0.80;;;;;;;25.23;31.36;99570.03;5091623;28;38657;-73
2022/08/08 07:01:38;;;;;;;1.97;0.90;;;;;;;25.23;31.80;99564.59;5071137;28;41853;-78
2022/08/08 07:04:18;;;;;;;1.33;0.70;;;;;;;25.24;31.76;99560.03;5071789;28;41782;-76
2022/08/08 07:06:52;;;;;;;2.33;1.03;;;;;;;25.26;31.56;99569.69;5087129;28;42140;-74
2022/08/08 07:09:22;;;;;;;3.43;0.90;;;;;;;25.24;31.15;99577.13;5085919;28;41200;-79
2022/08/08 07:11:52;;;;;;;0.73;0.73;;;;;;;25.16;31.24;99574.44;5088916;28;40207;-80
2022/08/08 07:14:27;;;;;;;1.77;0.80;;;;;;;25.19;31.40;99568.69;5072058;28;42581;-78
2022/08/08 07:17:03;;;;;;;1.07;0.80;;;;;;;25.34;31.30;99577.81;5069786;28;43008;-76
2022/08/08 07:19:40;;;;;;;2.63;0.70;;;;;;;25.45;31.64;99573.06;5055894;28;40204;-79
2022/08/08 07:22:11;;;;;;;0.80;0.80;;;;;;;25.47;31.35;99566.41;5090922;28;42443;-75
2022/08/08 07:24:44;;;;;;;1.30;0.63;;;;;;;25.56;31.06;99578.09;5089383;28;42809;-77
2022/08/08 07:27:15;;;;;;;1.20;0.83;;;;;;;25.75;30.91;99585.84;5075381;28;41256;-75
2022/08/08 07:29:43;;;;;;;1.00;0.90;;;;;;;25.92;30.92;99576.63;5126271;27;39886;-75
2022/08/08 07:32:11;;;;;;;6.07;0.90;;;;;;;25.97;31.18;99562.53;5091742;28;42847;-75
2022/08/08 07:34:40;;;;;;;1.47;0.77;;;;;;;26.27;30.49;99585.28;5091925;28;44754;-77
2022/08/08 07:37:14;;;;;;;0.70;0.70;;;;;;;26.56;nan;99580.03;5074892;28;42193;-77
2022/08/08 07:39:45;;;;;;;0.90;0.90;;;;;;;26.88;29.86;99583.53;5089346;28;39960;-77
2022/08/08 07:42:13;;;;;;;1.00;0.70;;;;;;;27.04;29.69;99597.03;5074685;28;43637;-78
2022/08/08 07:44:43;;;;;;;1.23;0.73;;;;;;;27.09;29.73;99594.56;5091532;28;43273;-75
2022/08/08 07:47:12;;;;;;;0.80;0.80;;;;;;;27.17;29.51;99595.38;5074645;28;44072;-77
2022/08/08 07:49:42;;;;;;;1.90;0.70;;;;;;;27.26;28.96;99598.84;5125592;27;40943;-77
2022/08/08 07:52:14;;;;;;;1.30;0.67;;;;;;;27.45;28.67;99606.47;5074458;28;41750;-77
2022/08/08 07:54:51;;;;;;;1.20;0.80;;;;;;;27.78;27.82;99603.44;5074293;28;44196;-77
2022/08/08 07:57:27;;;;;;;0.87;0.83;;;;;;;28.14;27.64;99614.38;5090549;28;42817;-76
2022/08/08 08:00:04;;;;;;;1.00;0.90;;;;;;;28.43;27.48;99608.06;5052519;28;40847;-75
2022/08/08 08:02:45;;;;;;;0.73;0.73;;;;;;;28.53;27.00;99614.91;5071167;28;41862;-75
2022/08/08 08:05:20;;;;;;;1.37;0.90;;;;;;;28.95;27.09;99625.00;5074503;28;44002;-73
2022/08/08 08:07:55;;;;;;;1.43;0.80;;;;;;;29.55;26.18;99626.38;5090473;28;43029;-74
2022/08/08 08:10:30;;;;;;;0.90;0.67;;;;;;;29.66;25.77;99616.81;5073817;28;41513;-74
2022/08/08 08:13:19;;;;;;;0.73;0.70;;;;;;;29.58;25.38;99630.59;5073538;28;40832;-76
2022/08/08 08:15:54;;;;;;;1.40;0.63;;;;;;;29.55;25.92;99620.91;5074139;28;42465;-76
2022/08/08 08:18:23;;;;;;;1.50;0.73;;;;;;;29.81;25.81;99619.38;5090572;28;42026;-76
2022/08/08 08:20:52;;;;;;;1.23;0.70;;;;;;;30.30;25.33;99620.09;5091683;28;40786;-74
2022/08/08 08:23:22;;;;;;;0.83;0.83;;;;;;;30.57;24.83;99621.06;5090698;28;42712;-76
2022/08/08 08:25:49;;;;;;;1.80;1.00;;;;;;;30.83;24.77;99628.47;5091796;28;42638;-77
2022/08/08 08:28:18;;;;;;;1.07;0.80;;;;;;;30.88;23.68;99628.72;5125054;27;42014;-75
2022/08/08 08:30:46;;;;;;;1.10;0.83;;;;;;;30.80;24.16;99633.50;5091396;28;40675;-77
2022/08/08 08:33:14;;;;;;;2.10;0.73;;;;;;;30.98;24.32;99629.16;5074107;28;41027;-76
2022/08/08 08:35:42;;;;;;;0.60;0.60;;;;;;;31.81;23.58;99635.06;5096765;28;42873;-75
2022/08/08 08:38:10;;;;;;;1.00;0.70;;;;;;;33.01;22.54;99642.56;5070492;28;42158;-74
2022/08/08 08:40:40;;;;;;;1.00;0.67;;;;;;;33.98;21.18;99656.81;5064854;28;39316;-77
2022/08/08 08:43:09;;;;;;;0.80;0.80;;;;;;;34.55;20.86;99653.59;5073157;28;43532;-78
2022/08/08 08:45:37;;;;;;;1.60;0.80;;;;;;;35.10;19.80;99661.72;5089881;28;43347;-77
2022/08/08 08:48:06;;;;;;;0.80;0.80;;;;;;;35.74;19.23;99654.53;5090349;28;42194;-78
2022/08/08 08:50:40;;;;;;;0.70;0.70;;;;;;;36.36;18.81;99665.88;5087489;28;40761;-76
2022/08/08 08:53:14;;;;;;;0.70;0.70;;;;;;;36.64;18.33;99627.28;5090339;28;42497;-78
2022/08/08 08:55:45;;;;;;;1.27;0.73;;;;;;;38.26;17.38;99678.13;5056839;28;42723;-76
2022/08/08 08:58:24;;;;;;;1.77;0.90;;;;;;;39.11;16.07;99681.13;5090548;28;42213;-78
2022/08/08 09:00:52;;;;;;;0.80;0.75;;;;;;;39.58;16.00;99679.59;5086868;28;39980;-76
2022/08/08 09:03:23;;;;;;;2.95;0.80;;;;;;;39.99;15.69;99680.75;5090624;28;41844;-77
2022/08/08 09:05:51;;;;;;;0.77;0.77;;;;;;;40.03;15.12;99687.47;5073536;28;41333;-77
2022/08/08 09:08:23;;;;;;;1.13;0.90;;;;;;;39.76;15.25;99687.53;5090366;28;42380;-79
2022/08/08 09:10:53;;;;;;;1.13;0.80;;;;;;;39.44;15.84;99677.28;5069477;28;39185;-78
2022/08/08 09:13:22;;;;;;;0.95;0.70;;;;;;;39.70;16.02;99674.69;5053014;28;41744;-79
2022/08/08 09:15:51;;;;;;;0.90;0.90;;;;;;;39.99;15.65;99680.75;5078998;28;42603;-78
2022/08/08 09:18:20;;;;;;;1.35;0.95;;;;;;;39.81;15.24;99677.28;5072391;28;42275;-75
2022/08/08 09:20:50;;;;;;;0.88;0.70;;;;;;;39.33;15.63;99677.44;5088397;28;39962;-77
2022/08/08 09:23:19;;;;;;;0.70;0.70;;;;;;;38.93;15.38;99672.31;5070913;28;40423;-77
2022/08/08 09:25:56;;;;;;;1.25;0.80;;;;;;;39.19;15.49;99665.13;5084807;28;42460;-76
2022/08/08 09:28:29;;;;;;;0.90;0.90;;;;;;;40.54;14.47;99680.25;5069342;28;40896;-79
2022/08/08 09:31:05;;;;;;;2.70;0.80;;;;;;;41.20;14.18;99680.44;5085221;28;39927;-81
2022/08/08 09:33:34;;;;;;;1.70;1.08;;;;;;;41.00;13.62;99659.00;5089277;28;43151;-80
2022/08/08 09:36:02;;;;;;;0.90;0.90;;;;;;;41.12;14.27;99675.41;5074707;28;41808;-80
2022/08/08 09:38:42;;;;;;;0.85;0.80;;;;;;;40.67;14.17;99665.84;5092110;28;42218;-78
2022/08/08 09:41:16;;;;;;;0.70;0.70;;;;;;;40.04;14.91;99670.53;5090239;28;40789;-79
2022/08/08 09:43:50;;;;;;;2.08;0.95;;;;;;;39.56;14.80;99654.09;5092164;28;41796;-74
2022/08/08 09:46:22;;;;;;;0.70;0.70;;;;;;;39.48;14.46;99672.88;5089311;28;42883;-78
2022/08/08 09:48:49;;;;;;;0.63;0.63;;;;;;;38.95;15.56;99653.50;5088968;28;42103;-77
2022/08/08 09:51:23;;;;;;;0.80;0.80;;;;;;;38.43;15.36;99662.31;5092645;28;39840;-78
2022/08/08 09:53:54;;;;;;;0.80;0.80;;;;;;;38.12;16.02;99650.00;5091305;28;40666;-75
2022/08/08 09:56:23;;;;;;;0.60;0.60;;;;;;;38.80;15.38;99641.16;5074173;28;42636;-76
2022/08/08 09:58:57;;;;;;;0.82;0.70;;;;;;;39.72;14.61;99661.41;5074907;28;41411;-78
2022/08/08 10:01:26;;;;;;;0.93;0.85;;;;;;;40.20;14.48;99657.56;5090496;28;39621;-78
2022/08/08 10:03:57;;;;;;;0.98;0.90;;;;;;;39.78;14.82;99663.13;5074739;28;42133;-77
2022/08/08 10:06:31;;;;;;;0.60;0.60;;;;;;;39.00;15.21;99636.94;5089102;28;42774;-81
2022/08/08 10:08:59;;;;;;;1.95;0.90;;;;;;;38.42;15.72;99639.31;5085468;28;42274;-78
2022/08/08 10:11:29;;;;;;;1.33;0.70;;;;;;;37.95;15.84;99658.31;5090421;28;38922;-79
2022/08/08 10:13:58;;;;;;;0.90;0.67;;;;;;;37.75;15.75;99658.00;5074875;28;40834;-76
2022/08/08 10:16:37;;;;;;;0.60;0.60;;;;;;;37.78;16.06;99642.84;5090232;28;43374;-80
2022/08/08 10:19:07;;;;;;;0.83;0.80;;;;;;;37.66;15.87;99640.19;5070908;28;42305;-80
2022/08/08 10:21:37;;;;;;;0.93;0.90;;;;;;;37.46;15.92;99648.97;5073776;28;39830;-75
2022/08/08 10:24:06;;;;;;;1.47;0.93;;;;;;;38.24;15.43;99638.81;5073394;28;41739;-76
2022/08/08 10:26:41;;;;;;;0.80;0.80;;;;;;;39.04;14.74;99646.41;5090306;28;43231;-76
2022/08/08 10:29:11;;;;;;;1.20;0.90;;;;;;;39.03;14.23;99641.97;5087536;28;41741;-74
2022/08/08 10:34:28;;;;;;;0.60;0.60;;;;;;;40.41;14.59;99645.50;5089201;28;43261;-74
2022/08/08 10:36:58;;;;;;;0.90;0.90;;;;;;;41.38;13.59;99649.34;5089684;28;43081;-72
2022/08/08 10:39:29;;;;;;;1.00;0.60;;;;;;;42.10;12.69;99664.00;5092258;28;43061;-77
2022/08/08 10:41:59;;;;;;;0.70;0.70;;;;;;;42.01;12.66;99658.22;5089974;28;40654;-84
2022/08/08 10:44:35;;;;;;;0.80;0.80;;;;;;;41.54;13.07;99648.25;5090607;28;41815;-76
2022/08/08 10:47:10;;;;;;;0.95;0.90;;;;;;;41.32;12.90;99605.94;5090497;28;43144;-76
2022/08/08 10:49:40;;;;;;;0.75;0.75;;;;;;;41.99;13.26;99638.16;5091277;28;41154;-75
2022/08/08 10:52:08;;;;;;;1.00;0.73;;;;;;;41.76;13.11;99630.41;5090205;28;38704;-74
2022/08/08 10:54:38;;;;;;;0.63;0.63;;;;;;;41.22;13.23;99612.34;5092422;28;42424;-75
2022/08/08 10:57:08;;;;;;;0.73;0.68;;;;;;;41.06;13.16;99634.81;5091044;28;42613;-74
2022/08/08 10:59:35;;;;;;;0.80;0.68;;;;;;;40.93;13.36;99629.81;5091061;28;42174;-76
2022/08/08 11:02:03;;;;;;;0.80;0.80;;;;;;;40.94;13.45;99632.31;5091821;28;39582;-74
2022/08/08 11:04:31;;;;;;;0.65;0.65;;;;;;;41.15;13.29;99631.25;5092319;28;41519;-76
2022/08/08 11:07:00;;;;;;;0.75;0.63;;;;;;;40.88;13.11;99623.16;5091467;28;42930;-74
2022/08/08 11:09:28;;;;;;;0.70;0.70;;;;;;;40.34;13.40;99616.28;5091024;28;42382;-75
2022/08/08 11:11:57;;;;;;;0.80;0.80;;;;;;;39.99;14.06;99625.28;5090046;28;39567;-76
2022/08/08 11:14:26;;;;;;;1.45;0.90;;;;;;;40.37;14.17;99615.75;5073746;28;41881;-75
2022/08/08 11:16:54;;;;;;;0.93;0.80;;;;;;;41.49;13.17;99634.31;5086649;28;42752;-73
2022/08/08 11:19:27;;;;;;;0.70;0.70;;;;;;;42.62;12.52;99621.75;5088695;28;42195;-73
2022/08/08 11:21:56;;;;;;;1.02;0.90;;;;;;;43.26;11.90;99621.66;5084880;28;39125;-75
2022/08/08 11:24:26;;;;;;;1.45;0.70;;;;;;;44.08;11.77;99624.47;5091963;28;40948;-73
2022/08/08 11:26:56;;;;;;;1.50;0.85;;;;;;;44.59;11.62;99626.63;5089857;28;42826;-73
2022/08/08 11:29:29;;;;;;;0.70;0.70;;;;;;;44.38;11.36;99618.53;5081239;28;43462;-74
2022/08/08 11:31:58;;;;;;;1.45;0.70;;;;;;;43.59;12.27;99614.38;5090998;28;40745;-74
2022/08/08 11:34:29;;;;;;;0.90;0.90;;;;;;;42.98;12.57;99605.66;5091118;28;42594;-75
2022/08/08 11:36:58;;;;;;;0.85;0.77;;;;;;;42.66;12.63;99597.75;5089485;28;43578;-76
2022/08/08 11:39:26;;;;;;;1.50;0.73;;;;;;;42.37;12.63;99616.31;5091119;28;42178;-74
2022/08/08 11:41:55;;;;;;;0.93;0.80;;;;;;;41.95;13.09;99581.34;5092860;28;39582;-74
2022/08/08 11:44:23;;;;;;;0.88;0.52;;;;;;;41.99;13.14;99604.75;5091426;28;42674;-80
2022/08/08 11:46:56;;;;;;;0.88;0.85;;;;;;;41.82;12.91;99609.78;5091610;28;42748;-75
2022/08/08 11:49:25;;;;;;;0.63;0.63;;;;;;;41.72;13.10;99605.09;5074109;28;42463;-76
2022/08/08 11:51:54;;;;;;;1.55;1.23;;;;;;;41.88;12.81;99586.41;5091433;28;40091;-76
2022/08/08 11:54:33;;;;;;;0.80;0.60;;;;;;;42.06;12.83;99591.38;5091223;28;42422;-82
2022/08/08 11:57:19;;;;;;;1.02;0.77;;;;;;;42.71;12.81;99586.59;5091138;28;41797;-75
2022/08/08 11:59:48;;;;;;;1.33;0.70;;;;;;;43.95;11.89;99591.66;5087960;28;42939;-74
2022/08/08 12:02:20;;;;;;;0.75;0.75;;;;;;;45.39;10.78;99610.56;5090795;28;40586;-75
2022/08/08 12:04:50;;;;;;;0.73;0.60;;;;;;;46.49;10.27;99614.31;5091814;28;41127;-76
2022/08/08 12:07:18;;;;;;;0.85;0.60;;;;;;;47.46;10.08;99604.44;5072760;28;42820;-74
2022/08/08 12:09:46;;;;;;;0.88;0.88;;;;;;;48.66;9.16;99605.22;5090804;28;42224;-76
2022/08/08 12:16:20;;;;;;;0.63;0.63;;;;;;;50.80;8.24;99605.72;5091823;28;42682;-79
2022/08/08 12:18:51;;;;;;;0.70;0.70;;;;;;;51.16;7.90;99602.25;5091312;28;43124;-77
2022/08/08 12:21:25;;;;;;;0.68;0.68;;;;;;;51.56;8.25;99584.75;5087711;28;43100;-76
2022/08/08 12:24:03;;;;;;;0.73;0.60;;;;;;;52.38;7.67;99596.81;5089088;28;39893;-76
2022/08/08 12:26:39;;;;;;;0.70;0.70;;;;;;;52.51;6.72;99595.59;5073719;28;40567;-76
2022/08/08 12:29:25;;;;;;;0.68;0.68;;;;;;;52.38;7.58;99591.16;5091757;28;43457;-75